sensor_id;sensor_type;location;lat;lon;timestamp;P1;durP1;ratioP1;P2;durP2;ratioP2
9160;SDS011;4615;51.340;8.288;2023-05-29T00:00:12;7.70;;;4.78;;
9160;SDS011;4615;51.340;8.288;2023-05-29T00:02:42;7.15;;;5.10;;
9160;SDS011;4615;51.340;8.288;2023-05-29T00:05:09;8.52;;;4.90;;
9160;SDS011;4615;51.340;8.288;2023-05-29T00:07:36;8.75;;;5.50;;
9160;SDS011;4615;51.340;8.288;2023-05-29T00:10:03;9.07;;;5.47;;
9160;SDS011;4615;51.340;8.288;2023-05-29T00:12:30;8.30;;;5.50;;
9160;SDS011;4615;51.340;8.288;2023-05-29T00:14:56;7.43;;;5.20;;
9160;SDS011;4615;51.340;8.288;2023-05-29T00:17:23;8.10;;;5.05;;
9160;SDS011;4615;51.340;8.288;2023-05-29T00:19:54;8.65;;;5.78;;
9160;SDS011;4615;51.340;8.288;2023-05-29T00:22:20;7.05;;;4.72;;
9160;SDS011;4615;51.340;8.288;2023-05-29T00:24:47;6.68;;;4.75;;
9160;SDS011;4615;51.340;8.288;2023-05-29T00:27:15;7.32;;;5.20;;
9160;SDS011;4615;51.340;8.288;2023-05-29T00:29:42;7.15;;;5.25;;
9160;SDS011;4615;51.340;8.288;2023-05-29T00:32:09;8.07;;;5.32;;
9160;SDS011;4615;51.340;8.288;2023-05-29T00:34:35;8.15;;;5.10;;
9160;SDS011;4615;51.340;8.288;2023-05-29T00:37:03;8.13;;;5.50;;
9160;SDS011;4615;51.340;8.288;2023-05-29T00:39:30;9.77;;;5.50;;
9160;SDS011;4615;51.340;8.288;2023-05-29T00:41:56;9.60;;;5.90;;
9160;SDS011;4615;51.340;8.288;2023-05-29T00:44:23;7.82;;;6.03;;
9160;SDS011;4615;51.340;8.288;2023-05-29T00:46:50;7.72;;;5.88;;
9160;SDS011;4615;51.340;8.288;2023-05-29T00:49:17;7.95;;;5.70;;
9160;SDS011;4615;51.340;8.288;2023-05-29T00:51:45;9.35;;;5.97;;
9160;SDS011;4615;51.340;8.288;2023-05-29T00:54:13;7.72;;;5.70;;
9160;SDS011;4615;51.340;8.288;2023-05-29T00:56:41;8.27;;;6.15;;
9160;SDS011;4615;51.340;8.288;2023-05-29T00:59:08;8.75;;;5.63;;
9160;SDS011;4615;51.340;8.288;2023-05-29T01:01:35;8.77;;;6.20;;
9160;SDS011;4615;51.340;8.288;2023-05-29T01:04:01;9.73;;;6.15;;
9160;SDS011;4615;51.340;8.288;2023-05-29T01:06:29;9.40;;;6.30;;
9160;SDS011;4615;51.340;8.288;2023-05-29T01:08:55;9.05;;;6.07;;
9160;SDS011;4615;51.340;8.288;2023-05-29T01:11:24;9.48;;;6.15;;
9160;SDS011;4615;51.340;8.288;2023-05-29T01:13:53;8.77;;;5.88;;
9160;SDS011;4615;51.340;8.288;2023-05-29T01:16:21;7.90;;;5.80;;
9160;SDS011;4615;51.340;8.288;2023-05-29T01:18:54;8.68;;;5.93;;
9160;SDS011;4615;51.340;8.288;2023-05-29T01:21:26;7.45;;;5.97;;
9160;SDS011;4615;51.340;8.288;2023-05-29T01:23:57;9.57;;;6.28;;
9160;SDS011;4615;51.340;8.288;2023-05-29T01:29:16;7.55;;;6.03;;
9160;SDS011;4615;51.340;8.288;2023-05-29T01:31:45;8.15;;;6.13;;
9160;SDS011;4615;51.340;8.288;2023-05-29T01:34:11;8.02;;;6.00;;
9160;SDS011;4615;51.340;8.288;2023-05-29T01:36:38;8.43;;;6.25;;
9160;SDS011;4615;51.340;8.288;2023-05-29T01:39:04;7.60;;;5.75;;
9160;SDS011;4615;51.340;8.288;2023-05-29T01:41:31;8.03;;;5.90;;
9160;SDS011;4615;51.340;8.288;2023-05-29T01:43:58;8.35;;;6.05;;
9160;SDS011;4615;51.340;8.288;2023-05-29T01:46:27;7.95;;;6.05;;
9160;SDS011;4615;51.340;8.288;2023-05-29T01:48:53;8.73;;;6.10;;
9160;SDS011;4615;51.340;8.288;2023-05-29T01:51:20;7.25;;;5.90;;
9160;SDS011;4615;51.340;8.288;2023-05-29T01:53:47;8.35;;;6.32;;
9160;SDS011;4615;51.340;8.288;2023-05-29T01:56:13;8.95;;;6.30;;
9160;SDS011;4615;51.340;8.288;2023-05-29T01:58:40;9.20;;;6.50;;
9160;SDS011;4615;51.340;8.288;2023-05-29T02:01:07;10.88;;;6.47;;
9160;SDS011;4615;51.340;8.288;2023-05-29T02:03:34;9.23;;;6.13;;
9160;SDS011;4615;51.340;8.288;2023-05-29T02:06:01;9.40;;;6.97;;
9160;SDS011;4615;51.340;8.288;2023-05-29T02:08:27;9.43;;;5.85;;
9160;SDS011;4615;51.340;8.288;2023-05-29T02:10:54;8.23;;;6.15;;
9160;SDS011;4615;51.340;8.288;2023-05-29T02:13:20;7.90;;;6.50;;
9160;SDS011;4615;51.340;8.288;2023-05-29T02:15:47;9.57;;;7.40;;
9160;SDS011;4615;51.340;8.288;2023-05-29T02:18:14;8.60;;;6.80;;
9160;SDS011;4615;51.340;8.288;2023-05-29T02:20:43;10.65;;;7.47;;
9160;SDS011;4615;51.340;8.288;2023-05-29T02:23:10;10.63;;;8.27;;
9160;SDS011;4615;51.340;8.288;2023-05-29T02:25:36;11.60;;;8.40;;
9160;SDS011;4615;51.340;8.288;2023-05-29T02:28:03;11.45;;;9.02;;
9160;SDS011;4615;51.340;8.288;2023-05-29T02:30:30;12.18;;;8.90;;
9160;SDS011;4615;51.340;8.288;2023-05-29T02:32:57;12.25;;;9.77;;
9160;SDS011;4615;51.340;8.288;2023-05-29T02:35:23;13.02;;;9.85;;
9160;SDS011;4615;51.340;8.288;2023-05-29T02:37:51;11.23;;;9.20;;
9160;SDS011;4615;51.340;8.288;2023-05-29T02:40:18;13.50;;;9.95;;
9160;SDS011;4615;51.340;8.288;2023-05-29T02:42:44;14.07;;;9.73;;
9160;SDS011;4615;51.340;8.288;2023-05-29T02:45:11;13.30;;;10.38;;
9160;SDS011;4615;51.340;8.288;2023-05-29T02:47:37;13.57;;;9.95;;
9160;SDS011;4615;51.340;8.288;2023-05-29T02:50:04;16.83;;;10.40;;
9160;SDS011;4615;51.340;8.288;2023-05-29T02:52:31;11.98;;;9.57;;
9160;SDS011;4615;51.340;8.288;2023-05-29T02:54:59;15.38;;;10.57;;
9160;SDS011;4615;51.340;8.288;2023-05-29T02:57:25;14.65;;;10.20;;
9160;SDS011;4615;51.340;8.288;2023-05-29T02:59:52;15.38;;;10.10;;
9160;SDS011;4615;51.340;8.288;2023-05-29T03:02:20;16.13;;;10.55;;
9160;SDS011;4615;51.340;8.288;2023-05-29T03:04:46;14.65;;;10.15;;
9160;SDS011;4615;51.340;8.288;2023-05-29T03:07:15;13.38;;;9.48;;
9160;SDS011;4615;51.340;8.288;2023-05-29T03:09:41;14.32;;;9.75;;
9160;SDS011;4615;51.340;8.288;2023-05-29T03:12:09;16.67;;;9.40;;
9160;SDS011;4615;51.340;8.288;2023-05-29T03:14:36;13.70;;;9.40;;
9160;SDS011;4615;51.340;8.288;2023-05-29T03:17:03;16.42;;;9.63;;
9160;SDS011;4615;51.340;8.288;2023-05-29T03:19:29;16.23;;;9.75;;
9160;SDS011;4615;51.340;8.288;2023-05-29T03:21:56;17.95;;;9.73;;
9160;SDS011;4615;51.340;8.288;2023-05-29T03:24:22;14.30;;;9.30;;
9160;SDS011;4615;51.340;8.288;2023-05-29T03:26:49;13.13;;;9.53;;
9160;SDS011;4615;51.340;8.288;2023-05-29T03:29:18;13.95;;;8.75;;
9160;SDS011;4615;51.340;8.288;2023-05-29T03:31:44;13.18;;;9.05;;
9160;SDS011;4615;51.340;8.288;2023-05-29T03:34:11;12.37;;;8.90;;
9160;SDS011;4615;51.340;8.288;2023-05-29T03:36:38;12.55;;;8.82;;
9160;SDS011;4615;51.340;8.288;2023-05-29T03:39:04;13.75;;;9.05;;
9160;SDS011;4615;51.340;8.288;2023-05-29T03:41:31;13.93;;;9.80;;
9160;SDS011;4615;51.340;8.288;2023-05-29T03:43:57;13.50;;;9.88;;
9160;SDS011;4615;51.340;8.288;2023-05-29T03:46:25;13.18;;;9.45;;
9160;SDS011;4615;51.340;8.288;2023-05-29T03:48:52;15.75;;;9.60;;
9160;SDS011;4615;51.340;8.288;2023-05-29T03:51:18;14.77;;;9.80;;
9160;SDS011;4615;51.340;8.288;2023-05-29T03:53:45;16.80;;;9.88;;
9160;SDS011;4615;51.340;8.288;2023-05-29T03:56:11;12.02;;;9.50;;
9160;SDS011;4615;51.340;8.288;2023-05-29T03:58:37;14.07;;;9.85;;
9160;SDS011;4615;51.340;8.288;2023-05-29T04:01:04;13.10;;;9.00;;
9160;SDS011;4615;51.340;8.288;2023-05-29T04:03:32;14.00;;;9.52;;
9160;SDS011;4615;51.340;8.288;2023-05-29T04:05:58;12.57;;;8.95;;
9160;SDS011;4615;51.340;8.288;2023-05-29T04:08:25;13.60;;;9.50;;
9160;SDS011;4615;51.340;8.288;2023-05-29T04:10:51;11.20;;;8.93;;
9160;SDS011;4615;51.340;8.288;2023-05-29T04:13:18;15.50;;;9.93;;
9160;SDS011;4615;51.340;8.288;2023-05-29T04:15:45;12.77;;;9.70;;
9160;SDS011;4615;51.340;8.288;2023-05-29T04:18:11;13.60;;;8.98;;
9160;SDS011;4615;51.340;8.288;2023-05-29T04:20:39;13.40;;;9.38;;
9160;SDS011;4615;51.340;8.288;2023-05-29T04:23:06;15.10;;;9.70;;
9160;SDS011;4615;51.340;8.288;2023-05-29T04:25:32;12.23;;;9.10;;
9160;SDS011;4615;51.340;8.288;2023-05-29T04:27:59;16.08;;;10.13;;
9160;SDS011;4615;51.340;8.288;2023-05-29T04:30:27;12.98;;;9.57;;
9160;SDS011;4615;51.340;8.288;2023-05-29T04:32:54;15.33;;;9.50;;
9160;SDS011;4615;51.340;8.288;2023-05-29T04:35:21;17.80;;;10.68;;
9160;SDS011;4615;51.340;8.288;2023-05-29T04:37:48;15.18;;;9.68;;
9160;SDS011;4615;51.340;8.288;2023-05-29T04:40:15;15.07;;;10.38;;
9160;SDS011;4615;51.340;8.288;2023-05-29T04:42:42;15.18;;;9.65;;
9160;SDS011;4615;51.340;8.288;2023-05-29T04:45:09;13.30;;;9.63;;
9160;SDS011;4615;51.340;8.288;2023-05-29T04:47:36;15.20;;;9.13;;
9160;SDS011;4615;51.340;8.288;2023-05-29T04:50:08;14.40;;;9.10;;
9160;SDS011;4615;51.340;8.288;2023-05-29T04:52:36;14.18;;;9.38;;
9160;SDS011;4615;51.340;8.288;2023-05-29T04:55:04;16.35;;;9.88;;
9160;SDS011;4615;51.340;8.288;2023-05-29T04:57:30;15.05;;;8.85;;
9160;SDS011;4615;51.340;8.288;2023-05-29T04:59:57;14.45;;;9.27;;
9160;SDS011;4615;51.340;8.288;2023-05-29T05:02:23;14.50;;;9.07;;
9160;SDS011;4615;51.340;8.288;2023-05-29T05:04:53;15.73;;;9.45;;
9160;SDS011;4615;51.340;8.288;2023-05-29T05:07:19;16.60;;;10.27;;
9160;SDS011;4615;51.340;8.288;2023-05-29T05:09:45;14.00;;;9.50;;
9160;SDS011;4615;51.340;8.288;2023-05-29T05:12:13;15.15;;;9.80;;
9160;SDS011;4615;51.340;8.288;2023-05-29T05:14:40;14.98;;;9.85;;
9160;SDS011;4615;51.340;8.288;2023-05-29T05:17:06;17.05;;;11.32;;
9160;SDS011;4615;51.340;8.288;2023-05-29T05:19:32;17.00;;;11.23;;
9160;SDS011;4615;51.340;8.288;2023-05-29T05:21:59;17.30;;;11.90;;
9160;SDS011;4615;51.340;8.288;2023-05-29T05:24:25;17.07;;;11.27;;
9160;SDS011;4615;51.340;8.288;2023-05-29T05:26:52;15.90;;;11.40;;
9160;SDS011;4615;51.340;8.288;2023-05-29T05:29:19;15.32;;;10.75;;
9160;SDS011;4615;51.340;8.288;2023-05-29T05:31:46;15.68;;;10.65;;
9160;SDS011;4615;51.340;8.288;2023-05-29T05:34:12;13.15;;;9.35;;
9160;SDS011;4615;51.340;8.288;2023-05-29T05:36:39;14.18;;;9.18;;
9160;SDS011;4615;51.340;8.288;2023-05-29T05:39:05;16.45;;;10.00;;
9160;SDS011;4615;51.340;8.288;2023-05-29T05:41:31;14.00;;;9.25;;
9160;SDS011;4615;51.340;8.288;2023-05-29T05:43:58;14.97;;;8.83;;
9160;SDS011;4615;51.340;8.288;2023-05-29T05:46:26;15.50;;;8.63;;
9160;SDS011;4615;51.340;8.288;2023-05-29T05:48:53;13.30;;;8.25;;
9160;SDS011;4615;51.340;8.288;2023-05-29T05:51:22;14.73;;;8.63;;
9160;SDS011;4615;51.340;8.288;2023-05-29T05:53:48;15.05;;;8.25;;
9160;SDS011;4615;51.340;8.288;2023-05-29T05:56:15;13.77;;;8.40;;
9160;SDS011;4615;51.340;8.288;2023-05-29T05:58:41;13.48;;;7.65;;
9160;SDS011;4615;51.340;8.288;2023-05-29T06:01:08;12.00;;;7.70;;
9160;SDS011;4615;51.340;8.288;2023-05-29T06:03:36;13.77;;;7.80;;
9160;SDS011;4615;51.340;8.288;2023-05-29T06:06:03;9.65;;;6.65;;
9160;SDS011;4615;51.340;8.288;2023-05-29T06:08:29;14.67;;;7.73;;
9160;SDS011;4615;51.340;8.288;2023-05-29T06:10:55;12.95;;;7.10;;
9160;SDS011;4615;51.340;8.288;2023-05-29T06:13:22;12.32;;;6.53;;
9160;SDS011;4615;51.340;8.288;2023-05-29T06:15:48;11.98;;;6.50;;
9160;SDS011;4615;51.340;8.288;2023-05-29T06:18:15;11.35;;;6.35;;
9160;SDS011;4615;51.340;8.288;2023-05-29T06:20:43;10.77;;;6.43;;
9160;SDS011;4615;51.340;8.288;2023-05-29T06:23:09;11.93;;;6.30;;
9160;SDS011;4615;51.340;8.288;2023-05-29T06:25:36;11.00;;;6.15;;
9160;SDS011;4615;51.340;8.288;2023-05-29T06:28:02;10.13;;;5.32;;
9160;SDS011;4615;51.340;8.288;2023-05-29T06:30:30;10.07;;;5.53;;
9160;SDS011;4615;51.340;8.288;2023-05-29T06:32:57;10.45;;;5.68;;
9160;SDS011;4615;51.340;8.288;2023-05-29T06:35:23;12.52;;;6.40;;
9160;SDS011;4615;51.340;8.288;2023-05-29T06:37:51;13.20;;;6.40;;
9160;SDS011;4615;51.340;8.288;2023-05-29T06:40:18;10.50;;;5.55;;
9160;SDS011;4615;51.340;8.288;2023-05-29T06:42:44;12.02;;;5.60;;
9160;SDS011;4615;51.340;8.288;2023-05-29T06:45:11;11.02;;;5.60;;
9160;SDS011;4615;51.340;8.288;2023-05-29T06:47:39;11.23;;;5.30;;
9160;SDS011;4615;51.340;8.288;2023-05-29T06:50:06;9.20;;;5.18;;
9160;SDS011;4615;51.340;8.288;2023-05-29T06:52:32;9.70;;;4.97;;
9160;SDS011;4615;51.340;8.288;2023-05-29T06:55:01;10.73;;;5.18;;
9160;SDS011;4615;51.340;8.288;2023-05-29T06:57:27;10.45;;;5.13;;
9160;SDS011;4615;51.340;8.288;2023-05-29T06:59:53;10.70;;;5.45;;
9160;SDS011;4615;51.340;8.288;2023-05-29T07:02:20;9.30;;;5.15;;
9160;SDS011;4615;51.340;8.288;2023-05-29T07:04:46;10.38;;;5.07;;
9160;SDS011;4615;51.340;8.288;2023-05-29T07:07:13;8.73;;;4.93;;
9160;SDS011;4615;51.340;8.288;2023-05-29T07:09:39;10.48;;;5.07;;
9160;SDS011;4615;51.340;8.288;2023-05-29T07:12:07;8.40;;;4.60;;
9160;SDS011;4615;51.340;8.288;2023-05-29T07:14:33;7.20;;;4.60;;
9160;SDS011;4615;51.340;8.288;2023-05-29T07:17:00;9.95;;;4.70;;
9160;SDS011;4615;51.340;8.288;2023-05-29T07:19:26;10.80;;;4.90;;
9160;SDS011;4615;51.340;8.288;2023-05-29T07:21:53;10.13;;;4.60;;
9160;SDS011;4615;51.340;8.288;2023-05-29T07:24:20;9.38;;;4.82;;
9160;SDS011;4615;51.340;8.288;2023-05-29T07:26:46;11.63;;;5.07;;
9160;SDS011;4615;51.340;8.288;2023-05-29T07:29:14;9.48;;;4.85;;
9160;SDS011;4615;51.340;8.288;2023-05-29T07:31:42;8.93;;;4.60;;
9160;SDS011;4615;51.340;8.288;2023-05-29T07:34:09;8.55;;;4.70;;
9160;SDS011;4615;51.340;8.288;2023-05-29T07:36:35;11.00;;;4.70;;
9160;SDS011;4615;51.340;8.288;2023-05-29T07:39:02;10.82;;;4.18;;
9160;SDS011;4615;51.340;8.288;2023-05-29T07:41:30;9.83;;;4.80;;
9160;SDS011;4615;51.340;8.288;2023-05-29T07:43:57;9.95;;;4.70;;
9160;SDS011;4615;51.340;8.288;2023-05-29T07:46:24;8.15;;;4.60;;
9160;SDS011;4615;51.340;8.288;2023-05-29T07:48:51;11.45;;;5.10;;
9160;SDS011;4615;51.340;8.288;2023-05-29T07:51:17;10.35;;;4.35;;
9160;SDS011;4615;51.340;8.288;2023-05-29T07:53:44;9.63;;;4.43;;
9160;SDS011;4615;51.340;8.288;2023-05-29T07:56:11;9.45;;;4.15;;
9160;SDS011;4615;51.340;8.288;2023-05-29T07:58:38;7.68;;;4.28;;
9160;SDS011;4615;51.340;8.288;2023-05-29T08:01:05;7.97;;;4.32;;
9160;SDS011;4615;51.340;8.288;2023-05-29T08:03:33;9.70;;;4.35;;
9160;SDS011;4615;51.340;8.288;2023-05-29T08:05:59;10.02;;;4.57;;
9160;SDS011;4615;51.340;8.288;2023-05-29T08:08:26;9.18;;;4.40;;
9160;SDS011;4615;51.340;8.288;2023-05-29T08:10:52;9.23;;;4.45;;
9160;SDS011;4615;51.340;8.288;2023-05-29T08:13:19;9.40;;;4.40;;
9160;SDS011;4615;51.340;8.288;2023-05-29T08:15:45;8.98;;;4.32;;
9160;SDS011;4615;51.340;8.288;2023-05-29T08:18:11;9.07;;;4.47;;
9160;SDS011;4615;51.340;8.288;2023-05-29T08:20:39;9.68;;;4.60;;
9160;SDS011;4615;51.340;8.288;2023-05-29T08:23:06;9.00;;;4.50;;
9160;SDS011;4615;51.340;8.288;2023-05-29T08:25:32;8.38;;;4.63;;
9160;SDS011;4615;51.340;8.288;2023-05-29T08:27:58;8.48;;;4.82;;
9160;SDS011;4615;51.340;8.288;2023-05-29T08:30:25;8.32;;;4.60;;
9160;SDS011;4615;51.340;8.288;2023-05-29T08:32:51;9.77;;;4.50;;
9160;SDS011;4615;51.340;8.288;2023-05-29T08:35:18;10.57;;;4.80;;
9160;SDS011;4615;51.340;8.288;2023-05-29T08:37:45;10.20;;;4.50;;
9160;SDS011;4615;51.340;8.288;2023-05-29T08:40:12;9.80;;;4.65;;
9160;SDS011;4615;51.340;8.288;2023-05-29T08:42:40;10.55;;;4.63;;
9160;SDS011;4615;51.340;8.288;2023-05-29T08:45:08;8.75;;;4.65;;
9160;SDS011;4615;51.340;8.288;2023-05-29T08:47:35;10.68;;;4.57;;
9160;SDS011;4615;51.340;8.288;2023-05-29T08:50:02;9.38;;;4.57;;
9160;SDS011;4615;51.340;8.288;2023-05-29T08:52:30;8.97;;;4.63;;
9160;SDS011;4615;51.340;8.288;2023-05-29T08:55:02;9.35;;;4.40;;
9160;SDS011;4615;51.340;8.288;2023-05-29T08:57:28;9.63;;;4.60;;
9160;SDS011;4615;51.340;8.288;2023-05-29T08:59:55;9.13;;;4.73;;
9160;SDS011;4615;51.340;8.288;2023-05-29T09:02:22;8.45;;;4.40;;
9160;SDS011;4615;51.340;8.288;2023-05-29T09:04:48;8.48;;;4.30;;
9160;SDS011;4615;51.340;8.288;2023-05-29T09:07:15;11.18;;;4.72;;
9160;SDS011;4615;51.340;8.288;2023-05-29T09:09:42;7.57;;;4.57;;
9160;SDS011;4615;51.340;8.288;2023-05-29T09:12:10;8.90;;;4.60;;
9160;SDS011;4615;51.340;8.288;2023-05-29T09:14:36;9.00;;;4.72;;
9160;SDS011;4615;51.340;8.288;2023-05-29T09:17:03;10.13;;;5.07;;
9160;SDS011;4615;51.340;8.288;2023-05-29T09:19:30;7.20;;;4.28;;
9160;SDS011;4615;51.340;8.288;2023-05-29T09:22:00;8.83;;;4.30;;
9160;SDS011;4615;51.340;8.288;2023-05-29T09:24:27;10.03;;;4.70;;
9160;SDS011;4615;51.340;8.288;2023-05-29T09:26:53;8.07;;;4.57;;
9160;SDS011;4615;51.340;8.288;2023-05-29T09:29:22;9.20;;;4.77;;
9160;SDS011;4615;51.340;8.288;2023-05-29T09:31:48;9.83;;;4.60;;
9160;SDS011;4615;51.340;8.288;2023-05-29T09:34:15;7.90;;;4.60;;
9160;SDS011;4615;51.340;8.288;2023-05-29T09:36:42;10.52;;;4.80;;
9160;SDS011;4615;51.340;8.288;2023-05-29T09:39:08;9.80;;;4.83;;
9160;SDS011;4615;51.340;8.288;2023-05-29T09:41:41;8.25;;;4.22;;
9160;SDS011;4615;51.340;8.288;2023-05-29T09:44:07;10.50;;;4.67;;
9160;SDS011;4615;51.340;8.288;2023-05-29T09:46:37;8.65;;;4.35;;
9160;SDS011;4615;51.340;8.288;2023-05-29T09:49:03;10.85;;;5.07;;
9160;SDS011;4615;51.340;8.288;2023-05-29T09:51:34;9.82;;;4.70;;
9160;SDS011;4615;51.340;8.288;2023-05-29T09:54:12;10.38;;;4.90;;
9160;SDS011;4615;51.340;8.288;2023-05-29T09:56:39;10.10;;;5.00;;
9160;SDS011;4615;51.340;8.288;2023-05-29T09:59:07;8.57;;;4.95;;
9160;SDS011;4615;51.340;8.288;2023-05-29T10:01:34;10.13;;;5.03;;
9160;SDS011;4615;51.340;8.288;2023-05-29T10:04:01;11.20;;;4.70;;
9160;SDS011;4615;51.340;8.288;2023-05-29T10:06:28;9.57;;;4.28;;
9160;SDS011;4615;51.340;8.288;2023-05-29T10:08:55;8.40;;;4.38;;
9160;SDS011;4615;51.340;8.288;2023-05-29T10:11:23;9.82;;;5.00;;
9160;SDS011;4615;51.340;8.288;2023-05-29T10:13:52;8.75;;;4.50;;
9160;SDS011;4615;51.340;8.288;2023-05-29T10:16:21;10.50;;;4.30;;
9160;SDS011;4615;51.340;8.288;2023-05-29T10:18:49;9.30;;;4.70;;
9160;SDS011;4615;51.340;8.288;2023-05-29T10:21:17;9.68;;;4.70;;
9160;SDS011;4615;51.340;8.288;2023-05-29T10:23:45;10.93;;;4.60;;
9160;SDS011;4615;51.340;8.288;2023-05-29T10:26:18;12.00;;;5.15;;
9160;SDS011;4615;51.340;8.288;2023-05-29T10:28:48;10.70;;;4.40;;
9160;SDS011;4615;51.340;8.288;2023-05-29T10:31:16;10.85;;;5.18;;
9160;SDS011;4615;51.340;8.288;2023-05-29T10:33:48;11.27;;;4.60;;
9160;SDS011;4615;51.340;8.288;2023-05-29T10:36:16;11.23;;;4.97;;
9160;SDS011;4615;51.340;8.288;2023-05-29T10:38:45;9.55;;;4.53;;
9160;SDS011;4615;51.340;8.288;2023-05-29T10:41:30;11.10;;;4.90;;
9160;SDS011;4615;51.340;8.288;2023-05-29T10:43:59;11.02;;;4.80;;
9160;SDS011;4615;51.340;8.288;2023-05-29T10:49:08;11.40;;;4.80;;
9160;SDS011;4615;51.340;8.288;2023-05-29T10:51:41;9.43;;;4.63;;
9160;SDS011;4615;51.340;8.288;2023-05-29T10:54:09;10.68;;;4.70;;
9160;SDS011;4615;51.340;8.288;2023-05-29T10:56:36;10.30;;;4.68;;
9160;SDS011;4615;51.340;8.288;2023-05-29T10:59:02;10.00;;;4.68;;
9160;SDS011;4615;51.340;8.288;2023-05-29T11:01:29;9.82;;;4.57;;
9160;SDS011;4615;51.340;8.288;2023-05-29T11:06:41;11.27;;;4.60;;
9160;SDS011;4615;51.340;8.288;2023-05-29T11:09:12;13.97;;;4.87;;
9160;SDS011;4615;51.340;8.288;2023-05-29T11:14:38;9.75;;;4.38;;
9160;SDS011;4615;51.340;8.288;2023-05-29T11:17:14;8.97;;;4.37;;
9160;SDS011;4615;51.340;8.288;2023-05-29T11:19:55;8.93;;;4.38;;
9160;SDS011;4615;51.340;8.288;2023-05-29T11:22:23;8.98;;;4.20;;
9160;SDS011;4615;51.340;8.288;2023-05-29T11:24:54;9.17;;;4.27;;
9160;SDS011;4615;51.340;8.288;2023-05-29T11:27:22;9.32;;;4.40;;
9160;SDS011;4615;51.340;8.288;2023-05-29T11:29:51;9.73;;;4.37;;
9160;SDS011;4615;51.340;8.288;2023-05-29T11:32:19;9.15;;;4.10;;
9160;SDS011;4615;51.340;8.288;2023-05-29T11:34:47;9.15;;;4.28;;
9160;SDS011;4615;51.340;8.288;2023-05-29T11:37:14;11.02;;;4.32;;
9160;SDS011;4615;51.340;8.288;2023-05-29T11:39:40;10.27;;;4.07;;
9160;SDS011;4615;51.340;8.288;2023-05-29T11:42:08;9.95;;;4.38;;
9160;SDS011;4615;51.340;8.288;2023-05-29T11:44:35;9.43;;;4.40;;
9160;SDS011;4615;51.340;8.288;2023-05-29T11:47:01;8.93;;;4.20;;
9160;SDS011;4615;51.340;8.288;2023-05-29T11:49:28;10.45;;;4.30;;
9160;SDS011;4615;51.340;8.288;2023-05-29T11:52:04;8.23;;;4.18;;
9160;SDS011;4615;51.340;8.288;2023-05-29T11:54:32;9.00;;;4.07;;
9160;SDS011;4615;51.340;8.288;2023-05-29T11:56:58;10.23;;;3.80;;
9160;SDS011;4615;51.340;8.288;2023-05-29T11:59:29;9.23;;;3.95;;
9160;SDS011;4615;51.340;8.288;2023-05-29T12:01:55;9.93;;;4.18;;
9160;SDS011;4615;51.340;8.288;2023-05-29T12:04:22;9.10;;;4.27;;
9160;SDS011;4615;51.340;8.288;2023-05-29T12:06:48;9.57;;;4.15;;
9160;SDS011;4615;51.340;8.288;2023-05-29T12:09:24;9.25;;;4.50;;
9160;SDS011;4615;51.340;8.288;2023-05-29T12:11:51;6.95;;;3.85;;
9160;SDS011;4615;51.340;8.288;2023-05-29T12:14:17;11.02;;;4.53;;
9160;SDS011;4615;51.340;8.288;2023-05-29T12:16:46;9.60;;;4.43;;
9160;SDS011;4615;51.340;8.288;2023-05-29T12:19:12;11.25;;;4.35;;
9160;SDS011;4615;51.340;8.288;2023-05-29T12:21:41;8.80;;;4.07;;
9160;SDS011;4615;51.340;8.288;2023-05-29T12:24:07;9.60;;;4.15;;
9160;SDS011;4615;51.340;8.288;2023-05-29T12:26:34;8.70;;;3.83;;
9160;SDS011;4615;51.340;8.288;2023-05-29T12:29:02;10.68;;;4.38;;
9160;SDS011;4615;51.340;8.288;2023-05-29T12:31:28;11.13;;;4.10;;
9160;SDS011;4615;51.340;8.288;2023-05-29T12:33:59;10.55;;;4.32;;
9160;SDS011;4615;51.340;8.288;2023-05-29T12:36:26;7.13;;;3.88;;
9160;SDS011;4615;51.340;8.288;2023-05-29T12:38:52;10.00;;;4.40;;
9160;SDS011;4615;51.340;8.288;2023-05-29T12:41:25;6.23;;;3.93;;
9160;SDS011;4615;51.340;8.288;2023-05-29T12:43:52;7.25;;;3.65;;
9160;SDS011;4615;51.340;8.288;2023-05-29T12:46:18;8.68;;;3.92;;
9160;SDS011;4615;51.340;8.288;2023-05-29T12:48:45;8.73;;;4.10;;
9160;SDS011;4615;51.340;8.288;2023-05-29T12:51:13;7.65;;;3.65;;
9160;SDS011;4615;51.340;8.288;2023-05-29T12:53:39;8.75;;;4.00;;
9160;SDS011;4615;51.340;8.288;2023-05-29T12:56:06;7.82;;;3.97;;
9160;SDS011;4615;51.340;8.288;2023-05-29T12:58:32;7.73;;;4.13;;
9160;SDS011;4615;51.340;8.288;2023-05-29T13:00:58;8.95;;;4.10;;
9160;SDS011;4615;51.340;8.288;2023-05-29T13:03:25;7.72;;;3.80;;
9160;SDS011;4615;51.340;8.288;2023-05-29T13:05:51;7.95;;;4.05;;
9160;SDS011;4615;51.340;8.288;2023-05-29T13:08:20;9.43;;;4.25;;
9160;SDS011;4615;51.340;8.288;2023-05-29T13:10:46;7.82;;;3.95;;
9160;SDS011;4615;51.340;8.288;2023-05-29T13:13:13;9.27;;;4.13;;
9160;SDS011;4615;51.340;8.288;2023-05-29T13:15:39;10.13;;;4.13;;
9160;SDS011;4615;51.340;8.288;2023-05-29T13:18:06;7.53;;;3.90;;
9160;SDS011;4615;51.340;8.288;2023-05-29T13:20:32;9.02;;;3.92;;
9160;SDS011;4615;51.340;8.288;2023-05-29T13:22:59;7.13;;;3.85;;
9160;SDS011;4615;51.340;8.288;2023-05-29T13:25:26;6.45;;;3.50;;
9160;SDS011;4615;51.340;8.288;2023-05-29T13:27:53;7.05;;;3.85;;
9160;SDS011;4615;51.340;8.288;2023-05-29T13:30:20;10.23;;;3.88;;
9160;SDS011;4615;51.340;8.288;2023-05-29T13:32:47;7.90;;;3.90;;
9160;SDS011;4615;51.340;8.288;2023-05-29T13:35:13;9.02;;;4.00;;
9160;SDS011;4615;51.340;8.288;2023-05-29T13:37:39;8.73;;;3.83;;
9160;SDS011;4615;51.340;8.288;2023-05-29T13:40:06;10.23;;;4.30;;
9160;SDS011;4615;51.340;8.288;2023-05-29T13:42:35;8.15;;;4.30;;
9160;SDS011;4615;51.340;8.288;2023-05-29T13:45:02;9.60;;;4.07;;
9160;SDS011;4615;51.340;8.288;2023-05-29T13:47:28;7.82;;;3.92;;
9160;SDS011;4615;51.340;8.288;2023-05-29T13:49:57;10.60;;;3.90;;
9160;SDS011;4615;51.340;8.288;2023-05-29T13:52:24;7.07;;;3.60;;
9160;SDS011;4615;51.340;8.288;2023-05-29T13:54:51;7.93;;;3.80;;
9160;SDS011;4615;51.340;8.288;2023-05-29T13:57:17;8.20;;;3.92;;
9160;SDS011;4615;51.340;8.288;2023-05-29T13:59:45;8.55;;;3.95;;
9160;SDS011;4615;51.340;8.288;2023-05-29T14:02:11;7.47;;;3.53;;
9160;SDS011;4615;51.340;8.288;2023-05-29T14:04:38;8.52;;;4.03;;
9160;SDS011;4615;51.340;8.288;2023-05-29T14:07:07;7.53;;;3.60;;
9160;SDS011;4615;51.340;8.288;2023-05-29T14:09:34;8.23;;;3.97;;
9160;SDS011;4615;51.340;8.288;2023-05-29T14:12:00;9.18;;;4.10;;
9160;SDS011;4615;51.340;8.288;2023-05-29T14:14:27;6.20;;;3.87;;
9160;SDS011;4615;51.340;8.288;2023-05-29T14:16:55;7.78;;;3.70;;
9160;SDS011;4615;51.340;8.288;2023-05-29T14:19:21;7.57;;;3.65;;
9160;SDS011;4615;51.340;8.288;2023-05-29T14:21:48;6.13;;;3.38;;
9160;SDS011;4615;51.340;8.288;2023-05-29T14:24:14;8.30;;;3.95;;
9160;SDS011;4615;51.340;8.288;2023-05-29T14:26:42;8.50;;;3.80;;
9160;SDS011;4615;51.340;8.288;2023-05-29T14:29:11;9.52;;;3.60;;
9160;SDS011;4615;51.340;8.288;2023-05-29T14:31:38;6.72;;;3.58;;
9160;SDS011;4615;51.340;8.288;2023-05-29T14:34:06;6.53;;;3.70;;
9160;SDS011;4615;51.340;8.288;2023-05-29T14:36:33;6.03;;;3.30;;
9160;SDS011;4615;51.340;8.288;2023-05-29T14:39:00;7.40;;;3.47;;
9160;SDS011;4615;51.340;8.288;2023-05-29T14:41:27;7.85;;;3.67;;
9160;SDS011;4615;51.340;8.288;2023-05-29T14:43:53;7.18;;;3.78;;
9160;SDS011;4615;51.340;8.288;2023-05-29T14:46:23;6.53;;;3.65;;
9160;SDS011;4615;51.340;8.288;2023-05-29T14:48:49;6.93;;;3.72;;
9160;SDS011;4615;51.340;8.288;2023-05-29T14:51:17;7.10;;;3.60;;
9160;SDS011;4615;51.340;8.288;2023-05-29T14:53:45;7.07;;;3.35;;
9160;SDS011;4615;51.340;8.288;2023-05-29T14:56:12;8.30;;;3.53;;
9160;SDS011;4615;51.340;8.288;2023-05-29T14:58:38;6.90;;;3.80;;
9160;SDS011;4615;51.340;8.288;2023-05-29T15:01:06;6.35;;;3.58;;
9160;SDS011;4615;51.340;8.288;2023-05-29T15:03:33;9.20;;;3.77;;
9160;SDS011;4615;51.340;8.288;2023-05-29T15:06:00;6.95;;;3.38;;
9160;SDS011;4615;51.340;8.288;2023-05-29T15:08:28;7.22;;;3.60;;
9160;SDS011;4615;51.340;8.288;2023-05-29T15:10:58;6.47;;;3.35;;
9160;SDS011;4615;51.340;8.288;2023-05-29T15:13:25;5.88;;;3.42;;
9160;SDS011;4615;51.340;8.288;2023-05-29T15:15:51;5.78;;;3.50;;
9160;SDS011;4615;51.340;8.288;2023-05-29T15:18:18;7.50;;;3.40;;